Time;durP1;ratioP1;P1;durP2;ratioP2;P2;SDS_P1;SDS_P2;PMS_P1;PMS_P2;Temp;Humidity;BMP_temperature;BMP_pressure;BME280_temperature;BME280_humidity;BME280_pressure;Samples;Min_cycle;Max_cycle;Signal;HPM_P1;HPM_P2
2021/07/31 00:01:06;;;;;;;27.30;25.47;;;20.10;88.60;;;;;;5038664;28;20831;-73
2021/07/31 00:03:32;;;;;;;28.07;26.13;;;20.10;88.70;;;;;;5042984;28;20649;-73
2021/07/31 00:05:59;;;;;;;27.50;25.60;;;20.00;88.90;;;;;;5040957;28;20916;-73
2021/07/31 00:08:28;;;;;;;26.50;24.90;;;20.00;89.10;;;;;;5045858;28;20821;-73
2021/07/31 00:10:55;;;;;;;27.97;26.10;;;20.10;88.90;;;;;;5040148;28;20601;-73
2021/07/31 00:13:22;;;;;;;26.90;25.20;;;20.10;88.70;;;;;;5046859;28;20451;-73
2021/07/31 00:15:49;;;;;;;26.83;25.03;;;20.10;88.60;;;;;;5043682;28;20479;-73
2021/07/31 00:18:17;;;;;;;28.07;25.97;;;20.10;88.60;;;;;;5045217;28;20479;-73
2021/07/31 00:20:44;;;;;;;28.10;26.07;;;20.10;88.60;;;;;;5037050;28;20468;-73
2021/07/31 00:23:11;;;;;;;26.60;24.70;;;20.10;88.60;;;;;;5045487;28;20455;-73
2021/07/31 00:25:38;;;;;;;26.40;24.70;;;20.10;88.60;;;;;;5039619;28;20460;-73
2021/07/31 00:28:07;;;;;;;26.37;24.67;;;20.10;88.70;;;;;;5043321;28;20439;-73
2021/07/31 00:30:34;;;;;;;26.53;24.83;;;20.10;88.90;;;;;;5038802;28;20471;-73
2021/07/31 00:33:01;;;;;;;27.47;25.40;;;20.10;88.90;;;;;;5039778;28;20459;-73
2021/07/31 00:35:29;;;;;;;27.43;25.73;;;20.00;89.00;;;;;;5043042;28;20459;-73
2021/07/31 00:37:56;;;;;;;27.10;25.20;;;19.90;89.40;;;;;;5044175;28;20479;-73
2021/07/31 00:40:23;;;;;;;24.83;23.33;;;19.90;89.60;;;;;;5043590;28;20465;-73
2021/07/31 00:42:51;;;;;;;26.67;24.80;;;19.90;89.70;;;;;;5044144;28;20468;-73
2021/07/31 00:45:18;;;;;;;27.43;25.43;;;19.90;89.70;;;;;;5044123;28;20473;-73
2021/07/31 00:47:45;;;;;;;24.07;22.67;;;19.90;89.60;;;;;;5043729;28;21012;-73
2021/07/31 00:50:13;;;;;;;24.90;23.30;;;20.00;87.90;;;;;;5041334;28;20562;-73
2021/07/31 00:52:42;;;;;;;23.80;22.40;;;20.00;86.70;;;;;;5042845;28;20473;-73
2021/07/31 00:55:12;;;;;;;27.00;24.67;;;20.00;85.90;;;;;;5045267;28;20465;-73
2021/07/31 00:57:41;;;;;;;25.37;23.47;;;20.00;86.00;;;;;;5039246;28;20984;-73
2021/07/31 01:00:09;;;;;;;25.37;23.73;;;20.10;85.00;;;;;;5042857;28;20983;-73
2021/07/31 01:02:36;;;;;;;26.70;25.10;;;20.10;84.80;;;;;;5039976;28;20641;-73
2021/07/31 01:05:04;;;;;;;25.10;23.50;;;20.10;86.10;;;;;;5040950;28;20558;-73
2021/07/31 01:07:31;;;;;;;26.30;24.70;;;20.10;86.70;;;;;;5035537;28;20484;-73
2021/07/31 01:09:59;;;;;;;26.87;25.07;;;20.10;87.00;;;;;;5046835;28;20467;-73
2021/07/31 01:12:26;;;;;;;26.80;24.60;;;20.10;87.00;;;;;;5045851;28;20465;-73
2021/07/31 01:14:53;;;;;;;25.17;23.77;;;20.10;86.50;;;;;;5044127;28;20574;-73
2021/07/31 01:17:20;;;;;;;24.67;23.27;;;20.10;85.90;;;;;;5048170;28;21024;-73
2021/07/31 01:19:47;;;;;;;25.30;23.77;;;20.10;85.50;;;;;;5048385;28;20573;-73
2021/07/31 01:22:15;;;;;;;25.10;23.70;;;20.10;85.30;;;;;;5049531;28;20455;-73
2021/07/31 01:24:42;;;;;;;26.30;24.80;;;20.20;85.40;;;;;;5046424;28;20459;-73
2021/07/31 01:27:09;;;;;;;26.73;24.80;;;20.20;86.00;;;;;;5045827;28;20532;-73
2021/07/31 01:29:36;;;;;;;25.67;24.07;;;20.10;86.60;;;;;;5044435;28;20459;-73
2021/07/31 01:32:03;;;;;;;26.80;25.10;;;20.00;87.60;;;;;;5043515;28;20970;-73
2021/07/31 01:34:30;;;;;;;25.23;23.73;;;20.00;87.80;;;;;;5046502;28;20467;-73
2021/07/31 01:36:57;;;;;;;25.53;24.03;;;20.00;87.70;;;;;;5049325;28;20481;-73
2021/07/31 01:39:25;;;;;;;25.03;23.43;;;20.00;86.40;;;;;;5047158;28;20477;-73
2021/07/31 01:41:52;;;;;;;24.57;23.17;;;20.00;86.10;;;;;;5046158;28;20545;-73
2021/07/31 01:44:19;;;;;;;26.37;24.27;;;20.10;85.60;;;;;;5045046;28;20561;-73
2021/07/31 01:46:46;;;;;;;26.57;25.07;;;20.10;85.40;;;;;;5045195;28;20483;-73
2021/07/31 01:49:13;;;;;;;25.13;23.50;;;20.10;84.80;;;;;;5036840;28;21406;-73
2021/07/31 01:51:40;;;;;;;23.80;22.40;;;20.10;84.20;;;;;;5047091;28;20455;-73
2021/07/31 01:54:07;;;;;;;23.77;22.37;;;20.10;83.70;;;;;;5048152;28;20495;-73
2021/07/31 01:56:35;;;;;;;24.57;23.07;;;20.10;83.00;;;;;;5043525;28;20487;-73
2021/07/31 01:59:02;;;;;;;24.97;23.10;;;20.20;81.70;;;;;;5045840;28;20558;-73
2021/07/31 02:01:29;;;;;;;24.60;22.90;;;20.20;81.70;;;;;;5043233;28;20836;-73
2021/07/31 02:03:56;;;;;;;26.07;24.27;;;20.10;81.50;;;;;;5046094;28;20561;-73
2021/07/31 02:06:22;;;;;;;25.90;24.30;;;20.00;81.90;;;;;;5041053;28;20510;-72
2021/07/31 02:08:49;;;;;;;27.93;26.13;;;19.90;82.20;;;;;;5048989;28;20447;-73
2021/07/31 02:11:16;;;;;;;25.00;23.40;;;19.80;82.10;;;;;;5045715;28;20459;-73
2021/07/31 02:13:44;;;;;;;25.07;23.57;;;19.80;81.70;;;;;;5048873;28;20460;-73
2021/07/31 02:16:11;;;;;;;24.20;22.80;;;19.80;81.40;;;;;;5047134;28;20569;-73
2021/07/31 02:18:38;;;;;;;26.10;24.27;;;19.70;81.30;;;;;;5047867;28;20514;-73
2021/07/31 02:21:05;;;;;;;25.43;23.87;;;19.70;81.60;;;;;;5044500;28;20542;-73
2021/07/31 02:23:32;;;;;;;24.87;23.40;;;19.60;82.10;;;;;;5039363;28;20447;-73
2021/07/31 02:25:58;;;;;;;24.50;22.90;;;19.50;81.90;;;;;;5046001;28;20966;-73
2021/07/31 02:28:25;;;;;;;25.50;23.50;;;19.50;82.10;;;;;;5048643;28;20451;-73
2021/07/31 02:30:54;;;;;;;27.63;25.50;;;19.50;82.40;;;;;;5044935;28;20757;-73
2021/07/31 02:33:21;;;;;;;25.60;24.00;;;19.40;82.70;;;;;;5044754;28;21056;-73
2021/07/31 02:35:48;;;;;;;25.53;23.93;;;19.30;82.80;;;;;;5048106;28;20451;-73
2021/07/31 02:38:15;;;;;;;23.77;22.33;;;19.30;83.10;;;;;;5045506;28;20465;-73
2021/07/31 02:40:42;;;;;;;24.20;22.80;;;19.20;83.10;;;;;;5046763;28;20530;-73
2021/07/31 02:43:09;;;;;;;25.50;23.93;;;19.20;83.10;;;;;;5047323;28;20814;-73
2021/07/31 02:45:36;;;;;;;24.47;22.90;;;19.10;83.60;;;;;;5043262;28;20529;-73
2021/07/31 02:48:04;;;;;;;26.67;24.97;;;19.10;83.90;;;;;;5048704;28;20982;-72
2021/07/31 02:50:32;;;;;;;24.90;23.40;;;19.00;84.00;;;;;;5042888;28;20547;-72
2021/07/31 02:52:58;;;;;;;24.40;22.90;;;19.00;84.70;;;;;;5044867;28;20546;-72
2021/07/31 02:55:25;;;;;;;24.57;22.97;;;18.90;85.30;;;;;;5046898;28;20840;-72
2021/07/31 02:57:52;;;;;;;24.00;22.47;;;18.80;85.60;;;;;;5044272;28;20475;-72
2021/07/31 03:00:19;;;;;;;24.33;22.70;;;18.70;85.90;;;;;;5047192;28;20479;-72
2021/07/31 03:02:46;;;;;;;24.33;22.87;;;18.70;86.10;;;;;;5045704;28;20455;-72
2021/07/31 03:05:14;;;;;;;25.83;24.13;;;18.70;86.20;;;;;;5044312;28;20459;-72
2021/07/31 03:07:41;;;;;;;25.33;23.60;;;18.60;86.40;;;;;;5046486;28;21012;-72
2021/07/31 03:10:11;;;;;;;23.80;22.50;;;18.60;86.50;;;;;;5048025;28;20455;-72
2021/07/31 03:12:38;;;;;;;23.03;21.63;;;18.50;87.00;;;;;;5046909;28;20463;-72
2021/07/31 03:15:06;;;;;;;22.73;21.43;;;18.50;87.30;;;;;;5047991;28;20470;-73
2021/07/31 03:17:32;;;;;;;23.10;21.80;;;18.40;87.30;;;;;;5042806;28;20485;-72
2021/07/31 03:19:59;;;;;;;23.40;22.00;;;18.40;87.70;;;;;;5044939;28;20482;-72
2021/07/31 03:22:27;;;;;;;22.90;21.60;;;18.30;88.10;;;;;;5042834;28;20464;-72
2021/07/31 03:24:54;;;;;;;23.80;22.30;;;18.20;87.90;;;;;;5035307;28;20497;-72
2021/07/31 03:27:21;;;;;;;25.20;23.00;;;18.20;87.90;;;;;;5043285;28;20483;-72
2021/07/31 03:29:48;;;;;;;24.17;22.67;;;18.10;88.40;;;;;;5045479;28;20459;-72
2021/07/31 03:32:15;;;;;;;24.17;22.43;;;18.10;88.30;;;;;;5044489;28;20468;-72
2021/07/31 03:34:42;;;;;;;24.17;22.57;;;18.00;88.50;;;;;;5045922;28;20464;-72
2021/07/31 03:37:09;;;;;;;24.83;23.17;;;18.00;88.70;;;;;;5045193;28;21072;-73
2021/07/31 03:39:37;;;;;;;24.43;22.87;;;18.00;88.60;;;;;;5047034;28;20485;-72
2021/07/31 03:42:04;;;;;;;23.27;21.53;;;17.90;88.60;;;;;;5042972;28;20469;-72
2021/07/31 03:44:31;;;;;;;23.50;22.20;;;17.90;88.50;;;;;;5043837;28;20455;-73
2021/07/31 03:46:58;;;;;;;23.70;22.30;;;17.80;88.60;;;;;;5047524;28;20829;-72
2021/07/31 03:49:25;;;;;;;22.40;21.10;;;17.80;89.00;;;;;;5042363;28;20454;-72
2021/07/31 03:51:54;;;;;;;23.03;21.70;;;17.80;89.00;;;;;;5047369;28;20470;-73
2021/07/31 03:54:21;;;;;;;24.57;22.93;;;17.80;88.90;;;;;;5049002;28;22890;-72
2021/07/31 03:56:49;;;;;;;23.87;22.37;;;17.70;89.00;;;;;;5040364;28;20992;-72
2021/07/31 03:59:16;;;;;;;23.77;22.20;;;17.80;89.00;;;;;;5045423;28;20486;-72
2021/07/31 04:01:42;;;;;;;23.43;21.93;;;17.70;88.60;;;;;;5044716;28;20932;-72
2021/07/31 04:04:09;;;;;;;23.40;22.00;;;17.70;88.70;;;;;;5043231;28;20470;-72
2021/07/31 04:06:36;;;;;;;22.70;21.40;;;17.70;88.40;;;;;;5047242;28;20988;-72
2021/07/31 04:09:03;;;;;;;23.77;22.17;;;17.70;88.30;;;;;;5045327;28;20458;-73
2021/07/31 04:11:30;;;;;;;22.67;21.30;;;17.70;88.30;;;;;;5041055;28;20470;-72
2021/07/31 04:13:58;;;;;;;22.33;20.70;;;17.60;88.40;;;;;;5048138;28;20454;-72
2021/07/31 04:16:25;;;;;;;23.57;22.00;;;17.60;88.10;;;;;;5047892;28;20881;-72
2021/07/31 04:18:52;;;;;;;24.07;22.37;;;17.60;88.00;;;;;;5046514;28;20486;-72
2021/07/31 04:21:18;;;;;;;23.37;21.87;;;17.60;87.70;;;;;;5041068;28;20463;-72
2021/07/31 04:23:45;;;;;;;22.63;21.33;;;17.60;87.70;;;;;;5044741;28;20468;-72
2021/07/31 04:26:14;;;;;;;23.50;22.00;;;17.60;87.70;;;;;;5038594;28;20493;-72
2021/07/31 04:28:41;;;;;;;23.17;21.63;;;17.70;87.30;;;;;;5040316;28;20958;-72
2021/07/31 04:31:10;;;;;;;23.60;21.83;;;17.70;87.00;;;;;;5042450;28;20455;-72
2021/07/31 04:33:37;;;;;;;24.53;23.03;;;17.70;86.50;;;;;;5044790;28;20814;-72
2021/07/31 04:36:05;;;;;;;24.50;22.83;;;17.70;86.30;;;;;;5046843;28;20486;-72
2021/07/31 04:38:32;;;;;;;23.43;22.03;;;17.80;86.20;;;;;;5036683;28;20459;-72
2021/07/31 04:40:59;;;;;;;25.40;23.90;;;17.80;86.20;;;;;;5043559;28;20492;-72
2021/07/31 04:43:26;;;;;;;23.23;22.03;;;17.80;85.80;;;;;;5046850;28;20456;-72
2021/07/31 04:45:53;;;;;;;24.13;22.73;;;17.80;85.30;;;;;;5045777;28;20849;-72
2021/07/31 04:48:21;;;;;;;23.47;22.17;;;17.90;84.80;;;;;;5045226;28;20462;-72
2021/07/31 04:50:55;;;;;;;23.70;22.27;;;18.00;84.20;;;;;;5038491;28;20890;-72
2021/07/31 04:53:22;;;;;;;23.50;21.80;;;18.00;84.20;;;;;;5043931;28;20458;-72
2021/07/31 04:55:49;;;;;;;22.90;21.73;;;18.00;84.20;;;;;;5044347;28;20481;-72
2021/07/31 04:58:16;;;;;;;23.27;21.90;;;18.00;84.40;;;;;;5045121;28;20462;-72
2021/07/31 05:00:42;;;;;;;24.50;23.10;;;18.10;83.80;;;;;;5042708;28;20479;-72
2021/07/31 05:03:09;;;;;;;23.43;21.97;;;18.10;83.30;;;;;;5046906;28;20466;-72
2021/07/31 05:05:38;;;;;;;24.03;22.43;;;18.10;83.20;;;;;;5044150;28;20473;-72
2021/07/31 05:08:06;;;;;;;23.00;21.60;;;18.10;82.70;;;;;;5043650;28;20454;-73
2021/07/31 05:10:32;;;;;;;25.70;23.50;;;18.10;82.30;;;;;;5045795;28;20526;-72
2021/07/31 05:12:59;;;;;;;24.00;22.60;;;18.10;81.60;;;;;;5035711;28;20471;-72
2021/07/31 05:15:26;;;;;;;23.83;22.23;;;18.20;81.60;;;;;;5040576;28;20485;-73
2021/07/31 05:17:53;;;;;;;24.10;22.50;;;18.20;81.70;;;;;;5044705;28;20986;-72
2021/07/31 05:20:20;;;;;;;23.47;22.07;;;18.20;81.50;;;;;;5045671;28;20478;-73
2021/07/31 05:22:48;;;;;;;23.30;22.03;;;18.30;81.30;;;;;;5036363;28;20542;-73
2021/07/31 05:25:15;;;;;;;24.30;22.70;;;18.30;81.10;;;;;;5045798;28;20979;-73
2021/07/31 05:27:42;;;;;;;24.47;22.90;;;18.40;80.60;;;;;;5042189;28;20482;-73
2021/07/31 05:30:10;;;;;;;23.47;22.17;;;18.40;80.90;;;;;;5035462;28;20452;-72
2021/07/31 05:32:37;;;;;;;24.60;23.30;;;18.50;80.70;;;;;;5044685;28;20459;-73
2021/07/31 05:35:04;;;;;;;24.27;22.90;;;18.50;79.70;;;;;;5044692;28;20482;-72
2021/07/31 05:37:32;;;;;;;24.53;22.87;;;18.60;79.60;;;;;;5043660;28;20581;-73
2021/07/31 05:40:01;;;;;;;24.63;23.13;;;18.60;79.90;;;;;;5044597;28;20481;-73
2021/07/31 05:42:28;;;;;;;29.47;27.10;;;18.60;79.90;;;;;;5035888;28;20527;-73
2021/07/31 05:44:57;;;;;;;26.90;25.10;;;18.70;79.80;;;;;;5044044;28;20536;-73
2021/07/31 05:47:26;;;;;;;26.43;24.53;;;18.80;78.80;;;;;;5044529;28;20477;-73
2021/07/31 05:49:53;;;;;;;24.40;22.83;;;18.90;78.50;;;;;;5041971;28;20455;-73
2021/07/31 05:52:20;;;;;;;25.37;23.67;;;19.00;78.00;;;;;;5040929;28;20459;-73
2021/07/31 05:54:48;;;;;;;26.60;25.10;;;19.10;77.80;;;;;;5044223;28;20462;-73
2021/07/31 05:57:16;;;;;;;26.13;24.40;;;19.30;76.10;;;;;;5044455;28;20579;-73
2021/07/31 05:59:43;;;;;;;24.90;23.60;;;19.30;76.10;;;;;;5036776;28;20467;-73
2021/07/31 06:02:10;;;;;;;27.63;26.03;;;19.40;75.10;;;;;;5048734;28;20455;-73
2021/07/31 06:04:37;;;;;;;24.93;23.53;;;19.40;75.50;;;;;;5045819;28;20460;-73
2021/07/31 06:07:06;;;;;;;26.40;24.60;;;19.60;75.10;;;;;;5045505;28;20482;-73
2021/07/31 06:09:34;;;;;;;27.00;25.47;;;19.50;74.30;;;;;;5044799;28;20481;-73
2021/07/31 06:12:01;;;;;;;26.73;25.13;;;19.50;74.80;;;;;;5048323;28;20470;-73
2021/07/31 06:14:29;;;;;;;25.53;24.03;;;19.50;74.70;;;;;;5042893;28;20841;-73
2021/07/31 06:16:56;;;;;;;29.20;27.50;;;19.70;74.30;;;;;;5049192;28;20481;-73
2021/07/31 06:19:23;;;;;;;26.00;24.20;;;19.80;73.90;;;;;;5045513;28;20458;-73
2021/07/31 06:21:50;;;;;;;26.17;24.60;;;19.90;72.80;;;;;;5048084;28;20503;-73
2021/07/31 06:24:17;;;;;;;27.77;26.30;;;20.00;72.70;;;;;;5050615;28;20451;-73
2021/07/31 06:26:44;;;;;;;27.07;25.37;;;20.10;71.90;;;;;;5045937;28;20853;-73
2021/07/31 06:29:11;;;;;;;28.43;26.83;;;20.20;71.40;;;;;;5044664;28;20853;-73
2021/07/31 06:31:39;;;;;;;26.10;24.60;;;20.20;71.70;;;;;;5047953;28;20470;-73
2021/07/31 06:34:06;;;;;;;27.80;26.20;;;20.30;71.80;;;;;;5044286;28;20451;-73
2021/07/31 06:36:34;;;;;;;28.77;27.00;;;20.40;70.80;;;;;;5047208;28;20896;-73
2021/07/31 06:39:01;;;;;;;27.77;25.27;;;20.50;70.30;;;;;;5047170;28;20585;-73
2021/07/31 06:41:28;;;;;;;26.83;25.33;;;20.60;70.30;;;;;;5045757;28;20490;-74
2021/07/31 06:43:55;;;;;;;26.47;24.70;;;20.60;69.80;;;;;;5046912;28;20882;-74
2021/07/31 06:46:24;;;;;;;25.43;23.90;;;20.70;69.30;;;;;;5046661;28;21010;-74
2021/07/31 06:48:54;;;;;;;26.80;25.20;;;20.80;69.10;;;;;;5041282;28;20841;-74
2021/07/31 06:51:22;;;;;;;26.63;24.87;;;20.80;68.00;;;;;;5044641;28;20481;-74
2021/07/31 06:53:50;;;;;;;28.03;26.23;;;20.80;67.80;;;;;;5041935;28;20460;-74
2021/07/31 06:56:17;;;;;;;28.17;26.33;;;20.90;68.00;;;;;;5042756;28;20486;-74
2021/07/31 06:58:45;;;;;;;26.13;24.23;;;20.80;66.20;;;;;;5041895;28;20825;-73
2021/07/31 07:01:12;;;;;;;26.20;24.83;;;20.60;65.90;;;;;;5044164;28;20475;-74
2021/07/31 07:03:41;;;;;;;27.73;25.80;;;20.50;66.90;;;;;;5042871;28;20454;-73
2021/07/31 07:06:11;;;;;;;25.10;23.43;;;20.70;66.60;;;;;;5046758;28;20562;-75
2021/07/31 07:08:38;;;;;;;25.73;24.30;;;20.80;65.80;;;;;;5048015;28;20460;-72
2021/07/31 07:11:05;;;;;;;27.20;25.20;;;20.60;65.80;;;;;;5046657;28;20534;-74
2021/07/31 07:13:32;;;;;;;25.57;23.87;;;20.60;66.10;;;;;;5041142;28;20501;-74
2021/07/31 07:16:03;;;;;;;26.80;25.30;;;20.80;65.50;;;;;;5047166;28;20485;-74
2021/07/31 07:18:30;;;;;;;25.60;24.20;;;20.80;65.60;;;;;;5048263;28;20455;-73
2021/07/31 07:20:57;;;;;;;25.73;24.23;;;20.90;65.20;;;;;;5048023;28;20471;-73
2021/07/31 07:23:25;;;;;;;24.93;23.53;;;20.80;64.90;;;;;;5047332;28;20465;-75
2021/07/31 07:25:52;;;;;;;26.77;25.03;;;20.90;64.90;;;;;;5045863;28;20558;-75
2021/07/31 07:28:18;;;;;;;24.80;23.20;;;21.00;65.20;;;;;;5045784;28;20468;-75
2021/07/31 07:30:46;;;;;;;26.53;24.60;;;21.10;64.80;;;;;;5036908;28;20549;-73
2021/07/31 07:33:13;;;;;;;24.27;22.97;;;21.00;65.10;;;;;;5046371;28;20984;-75
2021/07/31 07:35:40;;;;;;;25.33;23.83;;;20.90;65.70;;;;;;5041777;28;21176;-75
2021/07/31 07:38:07;;;;;;;26.47;24.67;;;21.00;65.70;;;;;;5048503;28;20459;-75
2021/07/31 07:40:35;;;;;;;25.30;23.80;;;20.90;66.20;;;;;;5042603;28;20479;-75
2021/07/31 07:43:02;;;;;;;26.30;24.70;;;21.10;65.60;;;;;;5038347;28;20467;-76
2021/07/31 07:45:29;;;;;;;26.23;23.90;;;21.20;65.00;;;;;;5035457;28;20455;-73
2021/07/31 07:47:56;;;;;;;25.20;23.77;;;21.20;64.80;;;;;;5045501;28;20455;-74
2021/07/31 07:50:24;;;;;;;30.00;28.03;;;21.20;64.70;;;;;;5044001;28;20547;-73
2021/07/31 07:52:51;;;;;;;26.77;25.13;;;21.30;64.10;;;;;;5047822;28;21045;-73
2021/07/31 07:55:18;;;;;;;27.90;25.90;;;21.30;65.00;;;;;;5046577;28;20538;-73
2021/07/31 07:57:46;;;;;;;25.37;23.77;;;21.30;65.30;;;;;;5049069;28;20581;-73
2021/07/31 08:00:14;;;;;;;25.90;24.03;;;21.30;63.20;;;;;;5041602;28;20606;-73
2021/07/31 08:02:41;;;;;;;27.70;26.20;;;21.60;62.10;;;;;;5046465;28;20469;-73
2021/07/31 08:05:11;;;;;;;25.90;24.03;;;21.80;61.80;;;;;;5047563;28;20463;-73
2021/07/31 08:07:38;;;;;;;26.57;24.80;;;22.00;60.00;;;;;;5045752;28;20811;-74
2021/07/31 08:10:08;;;;;;;24.90;23.50;;;21.80;60.90;;;;;;5045539;28;20542;-77
2021/07/31 08:12:35;;;;;;;28.13;26.33;;;21.50;61.90;;;;;;5040627;28;20456;-73
2021/07/31 08:15:04;;;;;;;25.10;23.60;;;21.40;62.30;;;;;;5039145;28;20461;-74
2021/07/31 08:17:31;;;;;;;27.17;25.67;;;21.30;63.00;;;;;;5043734;28;20475;-74
2021/07/31 08:19:58;;;;;;;24.57;23.07;;;21.30;61.70;;;;;;5046470;28;20458;-74
2021/07/31 08:22:25;;;;;;;25.87;24.23;;;21.40;61.80;;;;;;5045962;28;20459;-73
2021/07/31 08:24:52;;;;;;;24.20;22.90;;;21.30;61.80;;;;;;5044631;28;20825;-74
2021/07/31 08:27:19;;;;;;;27.97;26.10;;;21.40;61.40;;;;;;5040002;28;20574;-73
2021/07/31 08:29:46;;;;;;;25.00;23.63;;;21.40;61.40;;;;;;5045933;28;20479;-74
2021/07/31 08:32:14;;;;;;;25.93;24.37;;;21.50;61.10;;;;;;5044289;28;20545;-73
2021/07/31 08:34:41;;;;;;;26.70;25.00;;;21.60;61.50;;;;;;5045694;28;20459;-73
2021/07/31 08:37:09;;;;;;;25.77;23.93;;;21.60;61.40;;;;;;5044208;28;20518;-74
2021/07/31 08:39:38;;;;;;;27.60;26.13;;;21.80;61.50;;;;;;5043817;28;21165;-73
2021/07/31 08:42:05;;;;;;;26.10;24.60;;;21.80;61.40;;;;;;5044612;28;20536;-72
2021/07/31 08:44:34;;;;;;;26.70;25.20;;;21.90;61.20;;;;;;5046896;28;20989;-73
2021/07/31 08:47:03;;;;;;;26.70;25.10;;;21.90;60.60;;;;;;5046028;28;20822;-77
2021/07/31 08:49:34;;;;;;;27.87;26.27;;;22.00;61.20;;;;;;5045737;28;20482;-73
2021/07/31 08:52:03;;;;;;;26.57;24.77;;;22.20;60.30;;;;;;5044817;28;20469;-73
2021/07/31 08:54:30;;;;;;;27.03;25.30;;;22.30;59.90;;;;;;5037217;28;20458;-73
2021/07/31 08:56:57;;;;;;;26.13;24.63;;;22.50;59.10;;;;;;5043098;28;20484;-73
2021/07/31 08:59:28;;;;;;;27.00;25.40;;;22.20;59.70;;;;;;5045182;28;20646;-73
2021/07/31 09:01:56;;;;;;;25.73;24.10;;;22.10;60.80;;;;;;5040362;28;20479;-73
2021/07/31 09:04:24;;;;;;;26.20;24.80;;;22.20;60.20;;;;;;5041123;28;20961;-73
2021/07/31 09:06:52;;;;;;;26.50;25.00;;;22.10;59.80;;;;;;5042273;28;20483;-73
2021/07/31 09:09:25;;;;;;;25.90;24.50;;;22.40;59.80;;;;;;5047182;28;20462;-73
2021/07/31 09:11:58;;;;;;;27.60;26.00;;;22.30;59.00;;;;;;5045523;28;20463;-73
2021/07/31 09:14:25;;;;;;;28.87;27.07;;;22.40;59.40;;;;;;5045020;28;20465;-73
2021/07/31 09:16:52;;;;;;;26.90;25.20;;;22.70;59.40;;;;;;5045013;28;20992;-73
2021/07/31 09:19:19;;;;;;;26.03;24.43;;;22.80;58.40;;;;;;5045953;28;20828;-73
2021/07/31 09:21:48;;;;;;;26.90;25.40;;;22.90;57.90;;;;;;5042011;28;20523;-73
2021/07/31 09:24:19;;;;;;;25.77;24.10;;;22.70;58.20;;;;;;5046490;28;20455;-73
2021/07/31 09:26:49;;;;;;;26.23;24.53;;;22.60;59.00;;;;;;5044571;28;20593;-73
2021/07/31 09:29:18;;;;;;;26.40;24.80;;;22.50;59.90;;;;;;5041562;28;20462;-72
2021/07/31 09:31:51;;;;;;;26.27;24.47;;;22.70;59.30;;;;;;5042150;28;20558;-74
2021/07/31 09:34:27;;;;;;;27.17;25.53;;;23.10;58.30;;;;;;5046253;28;20470;-73
2021/07/31 09:37:06;;;;;;;27.80;25.90;;;23.40;58.70;;;;;;5045939;28;20478;-74
2021/07/31 09:39:52;;;;;;;26.23;24.73;;;23.60;57.70;;;;;;5045987;28;20453;-74
2021/07/31 09:42:27;;;;;;;26.17;24.67;;;23.10;57.60;;;;;;5050556;28;20474;-74
2021/07/31 09:44:54;;;;;;;25.93;24.43;;;22.80;58.80;;;;;;5048569;28;20476;-74
2021/07/31 09:47:21;;;;;;;27.87;26.10;;;22.90;59.00;;;;;;5050706;28;20836;-74
2021/07/31 09:49:50;;;;;;;25.53;24.13;;;23.00;59.10;;;;;;5040575;28;20944;-74
2021/07/31 09:52:18;;;;;;;26.90;25.10;;;23.10;59.10;;;;;;5047191;28;20830;-71
2021/07/31 09:54:46;;;;;;;26.83;24.93;;;23.00;58.50;;;;;;5049934;28;20546;-71
2021/07/31 09:57:15;;;;;;;26.13;24.60;;;23.10;58.60;;;;;;5048136;28;20881;-72
2021/07/31 09:59:46;;;;;;;27.53;25.67;;;23.10;58.60;;;;;;5050123;28;20457;-73
2021/07/31 10:02:17;;;;;;;27.63;25.93;;;23.10;57.80;;;;;;5048174;28;20479;-73
2021/07/31 10:04:45;;;;;;;25.43;23.93;;;23.20;56.60;;;;;;5048857;28;20524;-73
2021/07/31 10:07:13;;;;;;;27.43;25.83;;;23.30;57.40;;;;;;5047874;28;20910;-73
2021/07/31 10:09:41;;;;;;;28.00;26.20;;;23.20;57.50;;;;;;5048633;28;20463;-73
2021/07/31 10:12:11;;;;;;;25.90;24.50;;;23.00;58.30;;;;;;5042211;28;20481;-72
2021/07/31 10:14:39;;;;;;;25.27;23.93;;;23.10;58.20;;;;;;5045581;28;20829;-72
2021/07/31 10:17:07;;;;;;;26.03;24.50;;;23.10;56.60;;;;;;5049525;28;20481;-72
2021/07/31 10:19:40;;;;;;;27.40;25.80;;;23.00;55.90;;;;;;5049314;28;20459;-72
2021/07/31 10:22:06;;;;;;;26.43;25.03;;;23.30;55.60;;;;;;5047005;28;20471;-71
2021/07/31 10:25:06;;;;;;;27.03;25.40;;;23.60;56.00;;;;;;5046830;28;20455;-71
2021/07/31 10:27:34;;;;;;;26.53;24.93;;;23.80;54.80;;;;;;5037186;28;20833;-71
2021/07/31 10:30:05;;;;;;;24.90;23.60;;;24.00;54.90;;;;;;5047770;28;20451;-71
2021/07/31 10:32:42;;;;;;;26.77;25.27;;;24.30;54.10;;;;;;5034988;28;20468;-71
2021/07/31 10:35:26;;;;;;;28.60;26.80;;;24.60;53.90;;;;;;5047392;28;20732;-71
2021/07/31 10:37:55;;;;;;;26.40;24.70;;;24.90;54.00;;;;;;5046675;28;20472;-71
2021/07/31 10:40:56;;;;;;;25.30;23.90;;;25.20;52.20;;;;;;5046153;28;20461;-71
2021/07/31 10:43:25;;;;;;;26.70;25.03;;;24.90;51.40;;;;;;5042504;28;20552;-71
2021/07/31 10:46:26;;;;;;;26.37;24.97;;;24.90;52.30;;;;;;5041379;28;20474;-71
2021/07/31 10:49:16;;;;;;;28.70;26.90;;;25.00;51.30;;;;;;5040892;28;20462;-71
2021/07/31 10:51:43;;;;;;;26.77;25.07;;;25.20;50.60;;;;;;5048043;28;20451;-71
2021/07/31 10:54:11;;;;;;;25.67;24.17;;;25.30;50.50;;;;;;5046424;28;20533;-71
2021/07/31 10:56:58;;;;;;;27.60;26.00;;;25.10;50.30;;;;;;5046543;28;20855;-71
2021/07/31 10:59:25;;;;;;;27.40;25.80;;;25.10;50.50;;;;;;5039260;28;20471;-72
2021/07/31 11:02:32;;;;;;;25.50;24.10;;;25.00;51.20;;;;;;5046379;28;21008;-71
2021/07/31 11:05:00;;;;;;;27.90;26.17;;;25.00;50.60;;;;;;5044639;28;20982;-73
2021/07/31 11:07:29;;;;;;;29.77;28.03;;;25.20;50.70;;;;;;5048571;28;20471;-72
2021/07/31 11:10:34;;;;;;;25.93;24.43;;;25.50;50.60;;;;;;5048733;28;20538;-72
2021/07/31 11:13:02;;;;;;;27.00;25.40;;;25.70;51.40;;;;;;5040036;28;20443;-72
2021/07/31 11:15:29;;;;;;;25.23;23.83;;;25.90;50.10;;;;;;5048732;28;20463;-72
2021/07/31 11:18:00;;;;;;;26.63;25.13;;;26.00;49.00;;;;;;5047361;28;20452;-72
2021/07/31 11:20:35;;;;;;;26.23;24.73;;;25.80;48.30;;;;;;5048743;28;20463;-71
2021/07/31 11:23:08;;;;;;;26.47;25.10;;;25.80;49.20;;;;;;5050164;28;20497;-73
2021/07/31 11:25:35;;;;;;;28.40;26.80;;;26.00;47.80;;;;;;5047416;28;20471;-73
2021/07/31 11:28:08;;;;;;;27.90;26.30;;;25.80;48.00;;;;;;5047771;28;20458;-73
2021/07/31 11:30:40;;;;;;;26.17;24.57;;;25.40;49.10;;;;;;5048375;28;20487;-73
2021/07/31 11:33:23;;;;;;;24.37;23.03;;;25.60;49.80;;;;;;5044589;28;20465;-72
2021/07/31 11:35:52;;;;;;;27.97;26.37;;;25.50;49.10;;;;;;5038272;28;20478;-72
2021/07/31 11:38:30;;;;;;;27.47;25.97;;;25.50;49.70;;;;;;5045383;28;20451;-72
2021/07/31 11:40:58;;;;;;;26.30;24.70;;;25.70;49.40;;;;;;5047786;28;20490;-73
2021/07/31 11:43:25;;;;;;;29.63;27.90;;;26.00;49.20;;;;;;5046996;28;20455;-73
2021/07/31 11:45:52;;;;;;;27.70;26.17;;;26.20;48.70;;;;;;5048233;28;20481;-73
2021/07/31 11:48:19;;;;;;;25.70;24.30;;;26.20;48.40;;;;;;5042410;28;20454;-73
2021/07/31 11:53:39;;;;;;;26.43;24.93;;;26.10;48.70;;;;;;5072993;27;20551;-75
2021/07/31 11:56:14;;;;;;;26.80;25.10;;;26.40;47.60;;;;;;5061849;28;20477;-74
2021/07/31 11:58:45;;;;;;;26.67;25.07;;;26.50;47.00;;;;;;5058857;28;20454;-73
2021/07/31 12:01:13;;;;;;;27.03;25.40;;;26.50;47.90;;;;;;5063753;28;20446;-73
2021/07/31 12:03:44;;;;;;;28.33;26.27;;;26.20;46.70;;;;;;5065283;28;20541;-73
2021/07/31 12:06:30;;;;;;;28.00;26.30;;;26.10;47.20;;;;;;5056378;28;20557;-72
2021/07/31 12:09:02;;;;;;;28.57;26.80;;;26.30;47.80;;;;;;5054173;28;20465;-72
2021/07/31 12:11:40;;;;;;;27.23;25.53;;;26.60;47.50;;;;;;5060566;28;20478;-72
2021/07/31 12:14:30;;;;;;;26.90;25.30;;;26.80;46.50;;;;;;5057505;28;20542;-73
2021/07/31 12:17:21;;;;;;;29.40;27.77;;;27.10;45.10;;;;;;5059357;28;20483;-73
2021/07/31 12:19:50;;;;;;;28.00;26.10;;;26.80;45.20;;;;;;5063107;28;20565;-74
2021/07/31 12:22:18;;;;;;;25.97;24.50;;;26.20;46.50;;;;;;5056402;28;20458;-75
2021/07/31 12:25:07;;;;;;;27.77;26.40;;;26.20;47.10;;;;;;5062386;28;20457;-75
2021/07/31 12:27:57;;;;;;;27.03;25.07;;;26.20;48.20;;;;;;5057435;28;20482;-75
2021/07/31 12:30:27;;;;;;;27.00;25.30;;;26.30;47.50;;;;;;5060772;28;20517;-75
2021/07/31 12:32:54;;;;;;;27.10;25.60;;;25.80;48.50;;;;;;5057882;28;20992;-75
2021/07/31 12:35:38;;;;;;;26.33;24.83;;;25.40;48.90;;;;;;5059791;28;20462;-74
2021/07/31 12:38:08;;;;;;;27.00;25.33;;;25.10;49.90;;;;;;5062336;28;20494;-75
2021/07/31 12:40:38;;;;;;;27.17;25.77;;;25.00;49.70;;;;;;5060431;28;20455;-73